Portada
METAR-TAF:

METAR-TAF

Aeroports :

Providenciales, Illes Turks i Caicos

latitud: 21-46-25N, longitud: 072-15-57W, altitud: 5 m

Observació

L'informe es va fer fa 4 hores i 6 minuts, a les 13:00 UTC
Vent 6 kt del Nord-Est
Temperatura 28°C
Humitat 66%
Pressió 1015 hPa
Visibilitat 10 km o més
Núvols disperses a una alçada de 1000 ft

METAR: MBPV 061300Z 05006KT 9999 SCT010 28/21 Q1015

Hora: 13:06 (17:06 UTC)

Pronòstic

L'informe es va fer fa 8 hores i 6 minuts, a les 09:00 UTC
Pronòstic vàlid del 06 a les 12 UTC al 07 a les 12 UTC
Vent 15 kt del Est
Visibilitat 10 km o més
Núvols disperses a una alçada de 1800 ft
Núvols disperses a una alçada de 5000 ft
Evolucionant progressivament
l' 06 a les 18 UTC al 06 a les 20 UTC
Visibilitat: 9000 m
Cel ennuvolat a una alçada de 1600 ft
xàfecs de pluja

TAF: MBPV 060900Z 0612/0712 08015KT 9999 SCT018 SCT050 BECMG 0618/0620 9000 SHRA BKN016

Observacions i pronòstics meteorològics de més de 4000 aeroports (METAR i TAF).

Les estacions disponibles són els punts grocs i vermells al mapa.

Posi el ratolí al punt desitjat per veure el nom de l'estació.

Feu clic per veure les observacions i els pronòstics meteorològics.

Per canviar el mapa: feu clic els botons verds amb una creu de color negre per apropar; al botó verd amb un guió per allunyar la imatge; o en les fletxes verdes per a mapes adjacents.


METAR-TAF: